KNZY

North Island NAS / Halsey Field Airport

San Diego, California, USA
METAR KNZY 190652Z 22005KT 5SM BR FEW008 SCT250 14/14 A3004 RMK AO2 SLP173 T01440139 $
Observed Flight Rules
Jan-19 @ 06:52 UTC (24 minutes ago) Marginal Visual Flight Rules
Wind Visibility Clouds Conditions
220° at 5 knots 5 miles
  • Few at 800' AGL
  • Scattered at 25,000' AGL
  • Mist
Temperatures Readings
Current 14°C / 57°F
Dewpoint 14°C / 57°F
Humidity 100%
Altimeter 30.04" Hg
Pressure 1017.3 hPa
Elevation 8
METAR KNZY 190652Z 22005KT 5SM BR FEW008 SCT250 14/14 A3004 RMK AO2 SLP173 T01440139 $
Observed Flight Rules
Jan-19 @ 06:52 UTC
(24 minutes ago)
MVFR
Wind Visibility
220° at 5 knots 5 miles
Clouds
  • Few at 800' AGL
  • Scattered at 25,000' AGL
Conditions
  • Mist
Temperature Dewpoint
14°C / 57°F 14°C / 57°F
Humidity Altimeter Pressure
100% 30.04" Hg 1017.3 hPa